createdAt,value
2019-02-19T00:00:35.842Z,4.22
2019-02-19T00:03:05.569Z,4.97
2019-02-19T00:05:35.061Z,3.92
2019-02-19T00:08:04.622Z,3.98
2019-02-19T00:10:34.115Z,3.87
2019-02-19T00:13:03.658Z,3.75
2019-02-19T00:15:33.182Z,4.70
2019-02-19T00:18:02.665Z,4.05
2019-02-19T00:20:32.228Z,3.75
2019-02-19T00:23:01.726Z,3.65
2019-02-19T00:25:31.280Z,4.70
2019-02-19T00:28:00.803Z,3.87
2019-02-19T00:30:30.293Z,3.87
2019-02-19T00:32:59.770Z,3.80
2019-02-19T00:35:29.311Z,4.12
2019-02-19T00:37:58.797Z,3.17
2019-02-19T00:40:28.356Z,3.72
2019-02-19T00:42:57.887Z,3.85
2019-02-19T00:45:27.369Z,3.60
2019-02-19T00:47:56.862Z,3.35
2019-02-19T00:50:26.385Z,3.40
2019-02-19T00:52:55.865Z,3.42
2019-02-19T00:55:25.351Z,3.80
2019-02-19T00:57:56.229Z,4.33
2019-02-19T01:00:25.736Z,3.98
2019-02-19T01:02:55.205Z,3.10
2019-02-19T01:05:24.826Z,4.33
2019-02-19T01:07:54.492Z,3.60
2019-02-19T01:10:24.017Z,2.85
2019-02-19T01:12:53.559Z,3.55
2019-02-19T01:15:25.453Z,3.90
2019-02-19T01:17:54.256Z,3.10
2019-02-19T01:20:23.822Z,3.02
2019-02-19T01:22:53.318Z,4.00
2019-02-19T01:25:22.810Z,2.85
2019-02-19T01:27:52.289Z,3.58
2019-02-19T01:30:21.759Z,3.65
2019-02-19T01:32:51.243Z,3.77
2019-02-19T01:35:20.711Z,3.33
2019-02-19T01:37:50.251Z,3.52
2019-02-19T01:40:19.732Z,3.00
2019-02-19T01:42:49.217Z,2.72
2019-02-19T01:45:18.723Z,3.12
2019-02-19T01:47:48.208Z,3.12
2019-02-19T01:50:17.739Z,3.70
2019-02-19T01:52:47.211Z,2.67
2019-02-19T01:55:16.695Z,4.30
2019-02-19T01:57:46.314Z,3.80
2019-02-19T02:00:15.872Z,2.65
2019-02-19T02:02:45.359Z,2.60
2019-02-19T02:05:14.832Z,3.35
2019-02-19T02:07:44.434Z,3.50
2019-02-19T02:10:13.916Z,3.95
2019-02-19T02:12:43.389Z,3.40
2019-02-19T02:15:12.897Z,3.65
2019-02-19T02:17:42.374Z,3.60
2019-02-19T02:20:11.867Z,3.37
2019-02-19T02:22:41.367Z,3.70
2019-02-19T02:25:10.981Z,3.77
2019-02-19T02:27:40.553Z,3.42
2019-02-19T02:30:10.274Z,2.95
2019-02-19T02:32:39.748Z,3.70
2019-02-19T02:35:11.294Z,4.05
2019-02-19T02:37:40.485Z,4.08
2019-02-19T02:40:10.062Z,4.42
2019-02-19T02:42:39.539Z,4.03
2019-02-19T02:45:09.164Z,3.22
2019-02-19T02:47:38.651Z,4.12
2019-02-19T02:50:08.218Z,5.03
2019-02-19T02:52:37.788Z,4.87
2019-02-19T02:55:07.270Z,4.22
2019-02-19T02:57:36.807Z,5.92
2019-02-19T03:00:09.337Z,4.97
2019-02-19T03:02:58.147Z,4.60
2019-02-19T03:05:27.619Z,4.30
2019-02-19T03:07:58.735Z,5.40
2019-02-19T03:10:28.309Z,4.67
2019-02-19T03:12:57.905Z,4.87
2019-02-19T03:15:27.391Z,6.80
2019-02-19T03:17:56.883Z,5.17
2019-02-19T03:20:26.360Z,5.97
2019-02-19T03:22:55.886Z,6.92
2019-02-19T03:25:25.366Z,7.42
2019-02-19T03:27:54.866Z,7.60
2019-02-19T03:30:24.369Z,7.30
2019-02-19T03:32:54.043Z,8.43
2019-02-19T03:35:23.536Z,8.43
2019-02-19T03:37:53.025Z,8.00
2019-02-19T03:40:22.537Z,8.60
2019-02-19T03:42:52.089Z,8.10
2019-02-19T03:45:21.614Z,8.88
2019-02-19T03:47:51.120Z,8.70
2019-02-19T03:50:20.634Z,8.75
2019-02-19T03:52:50.145Z,7.75
2019-02-19T03:55:19.630Z,7.53
2019-02-19T03:57:49.117Z,8.30
2019-02-19T04:00:18.714Z,8.38
2019-02-19T04:02:48.230Z,9.68
2019-02-19T04:05:17.894Z,9.23
2019-02-19T04:07:47.375Z,8.95
2019-02-19T04:10:16.873Z,9.60
2019-02-19T04:12:46.328Z,8.23
2019-02-19T04:15:15.988Z,8.38
2019-02-19T04:17:45.542Z,9.50
2019-02-19T04:20:15.025Z,9.08
2019-02-19T04:22:44.572Z,9.15
2019-02-19T04:25:14.069Z,9.05
2019-02-19T04:27:43.559Z,8.53
2019-02-19T04:30:13.150Z,9.65
2019-02-19T04:32:42.643Z,9.50
2019-02-19T04:35:12.184Z,9.00
2019-02-19T04:37:41.752Z,11.05
2019-02-19T04:40:11.328Z,10.95
2019-02-19T04:42:40.804Z,11.22
2019-02-19T04:45:10.421Z,11.70
2019-02-19T04:47:40.007Z,10.32
2019-02-19T04:50:10.254Z,12.10
2019-02-19T04:52:39.745Z,9.40
2019-02-19T04:55:09.669Z,11.33
2019-02-19T04:57:39.312Z,11.55
2019-02-19T05:00:32.852Z,10.55
2019-02-19T05:03:02.411Z,11.60
2019-02-19T05:05:31.896Z,10.20
2019-02-19T05:08:01.403Z,12.50
2019-02-19T05:10:31.015Z,11.15
2019-02-19T05:13:00.522Z,13.10
2019-02-19T05:15:30.963Z,11.57
2019-02-19T05:18:00.452Z,11.40
2019-02-19T05:20:30.007Z,11.38
2019-02-19T05:22:59.490Z,11.70
2019-02-19T05:25:28.985Z,10.75
2019-02-19T05:27:58.487Z,10.48
2019-02-19T05:30:27.990Z,10.13
2019-02-19T05:32:57.602Z,12.25
2019-02-19T05:35:27.117Z,11.33
2019-02-19T05:37:56.625Z,13.05
2019-02-19T05:40:26.106Z,13.48
2019-02-19T05:42:55.627Z,12.58
2019-02-19T05:45:25.172Z,11.78
2019-02-19T05:47:54.695Z,11.08
2019-02-19T05:50:24.299Z,13.25
2019-02-19T05:52:53.805Z,14.15
2019-02-19T05:55:23.382Z,14.70
2019-02-19T05:57:52.882Z,12.98
2019-02-19T06:00:22.376Z,12.85
2019-02-19T06:02:51.860Z,12.78
2019-02-19T06:05:21.420Z,12.73
2019-02-19T06:07:50.872Z,14.00
2019-02-19T06:10:20.386Z,12.05
2019-02-19T06:12:49.869Z,13.93
2019-02-19T06:15:19.353Z,12.55
2019-02-19T06:17:48.892Z,11.93
2019-02-19T06:20:18.422Z,12.37
2019-02-19T06:22:47.909Z,12.55
2019-02-19T06:25:17.409Z,11.43
2019-02-19T06:27:46.898Z,12.95
2019-02-19T06:30:16.389Z,10.35
2019-02-19T06:32:45.965Z,12.30
2019-02-19T06:35:15.627Z,11.33
2019-02-19T06:37:45.096Z,8.55
2019-02-19T06:40:29.734Z,11.22
2019-02-19T06:42:59.211Z,10.35
2019-02-19T06:45:28.686Z,11.57
2019-02-19T06:47:58.174Z,10.90
2019-02-19T06:50:27.759Z,12.88
2019-02-19T06:52:57.254Z,9.88
2019-02-19T06:55:26.743Z,9.75
2019-02-19T06:57:56.293Z,10.05
2019-02-19T07:00:25.786Z,10.28
2019-02-19T07:03:13.488Z,11.57
2019-02-19T07:05:43.015Z,8.88
2019-02-19T07:08:12.508Z,11.80
2019-02-19T07:10:42.025Z,10.53
2019-02-19T07:13:11.505Z,10.35
2019-02-19T07:15:41.030Z,9.40
2019-02-19T07:18:10.588Z,11.10
2019-02-19T07:20:40.115Z,9.23
2019-02-19T07:23:09.603Z,10.58
2019-02-19T07:25:39.156Z,11.63
2019-02-19T07:28:08.659Z,9.98
2019-02-19T07:30:38.144Z,9.55
2019-02-19T07:33:07.649Z,10.18
2019-02-19T07:35:37.140Z,9.53
2019-02-19T07:38:06.695Z,8.58
2019-02-19T07:40:36.259Z,9.08
2019-02-19T07:43:05.823Z,10.03
2019-02-19T07:45:35.312Z,10.05
2019-02-19T07:48:04.923Z,9.70
2019-02-19T07:50:34.491Z,10.20
2019-02-19T07:53:04.045Z,8.40
2019-02-19T07:55:33.550Z,9.30
2019-02-19T07:58:03.131Z,8.68
2019-02-19T08:00:32.697Z,8.75
2019-02-19T08:03:02.175Z,9.75
2019-02-19T08:05:31.682Z,9.65
2019-02-19T08:08:01.174Z,9.98
2019-02-19T08:10:30.679Z,9.90
2019-02-19T08:13:00.263Z,8.83
2019-02-19T08:15:29.816Z,6.95
2019-02-19T08:17:59.308Z,10.58
2019-02-19T08:20:28.799Z,7.53
2019-02-19T08:22:58.283Z,9.68
2019-02-19T08:25:27.952Z,9.03
2019-02-19T08:27:57.457Z,8.25
2019-02-19T08:30:26.958Z,7.87
2019-02-19T08:32:56.542Z,7.80
2019-02-19T08:35:26.040Z,8.68
2019-02-19T08:37:55.525Z,8.80
2019-02-19T08:40:25.101Z,8.85
2019-02-19T08:42:54.581Z,7.65
2019-02-19T08:45:24.162Z,7.25
2019-02-19T08:47:53.665Z,9.00
2019-02-19T08:50:23.203Z,9.10
2019-02-19T08:52:52.785Z,8.53
2019-02-19T08:55:22.275Z,8.30
2019-02-19T08:57:51.768Z,8.07
2019-02-19T09:00:21.342Z,8.80
2019-02-19T09:02:50.843Z,9.40
2019-02-19T09:05:20.354Z,7.40
2019-02-19T09:07:49.868Z,7.47
2019-02-19T09:10:19.377Z,8.38
2019-02-19T09:12:48.858Z,7.40
2019-02-19T09:15:18.337Z,6.90
2019-02-19T09:17:51.927Z,7.83
2019-02-19T09:20:19.149Z,8.20
2019-02-19T09:22:48.635Z,7.50
2019-02-19T09:25:18.121Z,8.70
2019-02-19T09:27:47.604Z,7.53
2019-02-19T09:30:17.113Z,7.50
2019-02-19T09:32:46.601Z,7.77
2019-02-19T09:35:16.103Z,7.27
2019-02-19T09:37:45.682Z,7.03
2019-02-19T09:40:15.364Z,6.60
2019-02-19T09:42:44.899Z,7.37
2019-02-19T09:45:14.437Z,7.10
2019-02-19T09:47:43.938Z,6.73
2019-02-19T09:50:13.413Z,6.37
2019-02-19T09:52:42.900Z,6.00
2019-02-19T09:55:12.542Z,7.00
2019-02-19T09:57:42.119Z,6.50
2019-02-19T10:00:14.498Z,5.90
2019-02-19T10:02:44.145Z,5.33
2019-02-19T10:05:13.741Z,4.43
2019-02-19T10:07:43.232Z,4.47
2019-02-19T10:10:23.678Z,5.20
2019-02-19T10:12:53.170Z,5.50
2019-02-19T10:15:22.708Z,4.00
2019-02-19T10:17:52.198Z,3.73
2019-02-19T10:20:21.703Z,4.63
2019-02-19T10:22:51.188Z,5.07
2019-02-19T10:25:20.671Z,4.10
2019-02-19T10:27:50.185Z,3.57
2019-02-19T10:30:21.005Z,3.20
2019-02-19T10:32:50.500Z,3.57
2019-02-19T10:35:20.118Z,3.90
2019-02-19T10:37:49.628Z,3.10
2019-02-19T10:40:21.227Z,3.57
2019-02-19T10:42:50.715Z,3.30
2019-02-19T10:45:27.640Z,3.23
2019-02-19T10:47:57.144Z,2.97
2019-02-19T10:50:26.659Z,3.13
2019-02-19T10:52:56.141Z,2.73
2019-02-19T10:55:25.611Z,3.30
2019-02-19T10:57:55.106Z,3.47
2019-02-19T11:00:25.011Z,3.67
2019-02-19T11:02:54.499Z,2.90
2019-02-19T11:05:23.977Z,2.97
2019-02-19T11:07:53.484Z,2.97
2019-02-19T11:10:23.019Z,3.30
2019-02-19T11:12:52.528Z,3.60
2019-02-19T11:15:22.014Z,2.33
2019-02-19T11:17:51.505Z,3.20
2019-02-19T11:20:22.809Z,2.30
2019-02-19T11:22:52.300Z,2.43
2019-02-19T11:25:21.783Z,2.40
2019-02-19T11:27:51.334Z,2.80
2019-02-19T11:30:21.318Z,2.63
2019-02-19T11:32:50.805Z,2.00
2019-02-19T11:35:20.292Z,2.80
2019-02-19T11:37:49.856Z,2.33
2019-02-19T11:40:19.350Z,2.37
2019-02-19T11:42:48.842Z,2.30
2019-02-19T11:45:20.310Z,1.93
2019-02-19T11:47:49.794Z,1.60
2019-02-19T11:50:19.303Z,2.30
2019-02-19T11:52:48.797Z,2.17
2019-02-19T11:55:20.006Z,2.40
2019-02-19T11:57:49.515Z,2.57
2019-02-19T12:00:29.615Z,2.20
2019-02-19T12:02:59.097Z,3.10
2019-02-19T12:05:28.612Z,2.50
2019-02-19T12:07:58.194Z,2.40
2019-02-19T12:10:27.699Z,2.93
2019-02-19T12:12:57.243Z,2.10
2019-02-19T12:15:34.938Z,2.50
2019-02-19T12:17:58.180Z,2.60
2019-02-19T12:20:27.655Z,2.53
2019-02-19T12:22:57.164Z,3.07
2019-02-19T12:25:26.673Z,2.73
2019-02-19T12:27:56.196Z,2.67
2019-02-19T12:30:25.754Z,2.20
2019-02-19T12:32:55.258Z,2.80
2019-02-19T12:35:24.781Z,2.63
2019-02-19T12:37:54.355Z,2.70
2019-02-19T12:40:23.846Z,2.67
2019-02-19T12:42:53.447Z,2.30
2019-02-19T12:45:23.027Z,3.50
2019-02-19T12:47:52.522Z,2.77
2019-02-19T12:50:22.034Z,2.90
2019-02-19T12:52:51.536Z,1.97
2019-02-19T12:55:21.807Z,1.90
2019-02-19T12:57:51.307Z,2.00
2019-02-19T13:00:21.130Z,2.40
2019-02-19T13:02:50.683Z,2.23
2019-02-19T13:05:20.200Z,2.23
2019-02-19T13:07:49.711Z,2.20
2019-02-19T13:10:19.209Z,2.10
2019-02-19T13:12:49.628Z,2.30
2019-02-19T13:15:21.836Z,1.50
2019-02-19T13:17:51.355Z,1.90
2019-02-19T13:20:20.958Z,2.10
2019-02-19T13:22:50.489Z,2.10
2019-02-19T13:25:19.973Z,2.20
2019-02-19T13:27:49.519Z,1.40
2019-02-19T13:30:22.693Z,1.77
2019-02-19T13:32:52.184Z,1.50
2019-02-19T13:35:21.825Z,1.53
2019-02-19T13:37:51.387Z,1.87
2019-02-19T13:40:21.499Z,1.80
2019-02-19T13:42:51.046Z,1.77
2019-02-19T13:45:20.632Z,1.50
2019-02-19T13:47:50.142Z,1.53
2019-02-19T13:50:24.555Z,1.63
2019-02-19T13:52:55.693Z,1.93
2019-02-19T13:55:26.909Z,2.00
2019-02-19T13:57:57.444Z,1.47
2019-02-19T14:00:28.805Z,1.97
2019-02-19T14:02:58.300Z,2.10
2019-02-19T14:05:27.856Z,2.17
2019-02-19T14:07:57.335Z,1.60
2019-02-19T14:10:26.859Z,2.00
2019-02-19T14:12:56.375Z,1.70
2019-02-19T14:15:44.174Z,2.00
2019-02-19T14:18:15.308Z,2.40
2019-02-19T14:20:48.865Z,2.80
2019-02-19T14:23:36.119Z,1.80
2019-02-19T14:26:23.421Z,1.77
2019-02-19T14:29:07.808Z,2.63
2019-02-19T14:31:44.814Z,2.33
2019-02-19T14:34:26.030Z,1.73
2019-02-19T14:36:59.990Z,1.93
2019-02-19T14:39:31.183Z,1.40
2019-02-19T14:42:06.398Z,2.43
2019-02-19T14:44:49.525Z,1.43
2019-02-19T14:47:29.721Z,1.50
2019-02-19T14:50:16.936Z,2.23
2019-02-19T14:52:50.491Z,1.57
2019-02-19T14:55:30.861Z,1.83
2019-02-19T14:58:02.926Z,1.93
2019-02-19T15:00:37.022Z,1.70
2019-02-19T15:03:08.184Z,2.00
2019-02-19T15:05:40.132Z,1.50
2019-02-19T15:08:14.255Z,2.20
2019-02-19T15:10:57.612Z,1.43
2019-02-19T15:13:31.696Z,2.57
2019-02-19T15:16:02.847Z,1.70
2019-02-19T15:18:34.863Z,2.23
2019-02-19T15:21:17.872Z,1.70
2019-02-19T15:24:05.144Z,2.03
2019-02-19T15:26:41.993Z,2.40
2019-02-19T15:29:15.569Z,2.10
2019-02-19T15:31:46.726Z,2.00
2019-02-19T15:34:20.672Z,2.70
2019-02-19T15:37:08.206Z,2.10
2019-02-19T15:39:55.412Z,2.00
2019-02-19T15:42:36.402Z,1.90
2019-02-19T15:45:10.244Z,2.07
2019-02-19T15:47:57.693Z,1.40
2019-02-19T15:50:44.937Z,2.00
2019-02-19T15:53:14.215Z,1.80
2019-02-19T15:56:01.327Z,1.67
2019-02-19T15:58:38.081Z,1.70
2019-02-19T16:01:25.526Z,2.20
2019-02-19T16:03:59.454Z,1.60
2019-02-19T16:06:30.590Z,2.10
2019-02-19T16:09:07.243Z,1.60
2019-02-19T16:11:53.663Z,1.30
2019-02-19T16:14:24.823Z,1.60
2019-02-19T16:16:56.507Z,1.50
2019-02-19T16:19:33.400Z,2.43
2019-02-19T16:22:10.284Z,1.90
2019-02-19T16:24:41.428Z,2.37
2019-02-19T16:27:12.645Z,1.60
2019-02-19T16:29:55.780Z,2.15
2019-02-19T16:32:33.124Z,1.65
2019-02-19T16:35:09.096Z,1.70
2019-02-19T16:37:51.804Z,1.65
2019-02-19T16:40:39.116Z,2.00
2019-02-19T16:43:10.307Z,1.92
2019-02-19T16:45:41.549Z,1.65
2019-02-19T16:48:28.043Z,1.30
2019-02-19T16:51:04.767Z,1.67
2019-02-19T16:53:53.605Z,1.40
2019-02-19T16:56:41.086Z,1.60
2019-02-19T16:59:24.125Z,1.70
2019-02-19T17:02:00.805Z,2.00
2019-02-19T17:04:34.392Z,1.90
2019-02-19T17:07:11.112Z,1.67
2019-02-19T17:09:54.498Z,2.10
2019-02-19T17:12:41.776Z,1.65
2019-02-19T17:15:30.123Z,2.15
2019-02-19T17:18:05.727Z,1.85
2019-02-19T17:20:36.878Z,1.50
2019-02-19T17:23:08.077Z,1.98
2019-02-19T17:25:41.957Z,2.58
2019-02-19T17:28:18.832Z,2.50
2019-02-19T17:30:52.728Z,2.67
2019-02-19T17:33:23.927Z,2.50
2019-02-19T17:35:59.521Z,2.10
2019-02-19T17:38:33.072Z,2.37
2019-02-19T17:41:04.252Z,3.67
2019-02-19T17:43:35.402Z,3.55
2019-02-19T17:46:06.638Z,2.60
2019-02-19T17:48:40.536Z,2.60
2019-02-19T17:51:09.908Z,2.92
2019-02-19T17:53:50.116Z,4.35
2019-02-19T17:56:34.403Z,3.08
2019-02-19T17:59:05.552Z,3.30
2019-02-19T18:01:42.461Z,3.25
2019-02-19T18:04:19.334Z,2.90
2019-02-19T18:06:48.591Z,3.25
2019-02-19T18:09:28.893Z,3.45
2019-02-19T18:12:00.049Z,3.75
2019-02-19T18:14:46.166Z,4.50
2019-02-19T18:17:19.837Z,4.15
2019-02-19T18:19:49.599Z,2.55
2019-02-19T18:22:19.253Z,3.35
2019-02-19T18:24:48.896Z,2.30
2019-02-19T18:27:18.379Z,2.35
2019-02-19T18:29:47.861Z,2.33
2019-02-19T18:32:17.410Z,3.20
2019-02-19T18:34:46.932Z,2.83
2019-02-19T18:37:16.429Z,3.52
2019-02-19T18:39:45.901Z,3.45
2019-02-19T18:42:15.406Z,3.37
2019-02-19T18:44:44.892Z,2.27
2019-02-19T18:47:14.452Z,3.70
2019-02-19T18:49:43.957Z,4.22
2019-02-19T18:52:13.505Z,2.25
2019-02-19T18:54:43.022Z,2.00
2019-02-19T18:57:12.484Z,3.72
2019-02-19T18:59:42.019Z,3.60
2019-02-19T19:02:11.510Z,3.08
2019-02-19T19:04:41.016Z,2.95
2019-02-19T19:07:10.600Z,2.65
2019-02-19T19:09:40.092Z,2.65
2019-02-19T19:12:09.586Z,4.03
2019-02-19T19:14:39.055Z,3.27
2019-02-19T19:17:08.573Z,2.60
2019-02-19T19:19:38.114Z,2.85
2019-02-19T19:22:07.602Z,2.83
2019-02-19T19:24:37.159Z,3.30
2019-02-19T19:27:06.745Z,3.15
2019-02-19T19:29:36.254Z,3.60
2019-02-19T19:32:05.844Z,3.17
2019-02-19T19:34:35.364Z,4.00
2019-02-19T19:37:04.930Z,3.02
2019-02-19T19:39:34.435Z,3.33
2019-02-19T19:42:03.992Z,3.65
2019-02-19T19:44:33.557Z,3.42
2019-02-19T19:47:03.219Z,2.65
2019-02-19T19:49:32.721Z,3.42
2019-02-19T19:52:02.283Z,3.33
2019-02-19T19:54:31.791Z,5.10
2019-02-19T19:57:01.303Z,4.12
2019-02-19T19:59:30.811Z,4.10
2019-02-19T20:02:00.296Z,2.95
2019-02-19T20:04:29.809Z,3.27
2019-02-19T20:06:59.334Z,3.52
2019-02-19T20:09:28.807Z,3.72
2019-02-19T20:11:58.318Z,3.05
2019-02-19T20:14:27.805Z,3.77
2019-02-19T20:16:57.597Z,3.60
2019-02-19T20:19:27.061Z,3.20
2019-02-19T20:21:56.615Z,4.12
2019-02-19T20:24:26.192Z,3.95
2019-02-19T20:26:58.049Z,2.67
2019-02-19T20:29:27.693Z,3.90
2019-02-19T20:31:57.317Z,3.17
2019-02-19T20:34:26.856Z,3.42
2019-02-19T20:36:56.364Z,3.80
2019-02-19T20:39:25.844Z,3.17
2019-02-19T20:41:55.376Z,3.02
2019-02-19T20:44:24.983Z,3.22
2019-02-19T20:46:54.496Z,3.08
2019-02-19T20:49:24.135Z,3.42
2019-02-19T20:51:53.640Z,4.12
2019-02-19T20:54:23.208Z,3.50
2019-02-19T20:56:52.701Z,2.80
2019-02-19T20:59:22.341Z,2.85
2019-02-19T21:01:51.903Z,3.40
2019-02-19T21:04:21.473Z,3.17
2019-02-19T21:06:50.976Z,4.10
2019-02-19T21:09:20.613Z,3.75
2019-02-19T21:11:50.199Z,3.55
2019-02-19T21:14:19.724Z,3.02
2019-02-19T21:16:49.275Z,4.67
2019-02-19T21:19:18.902Z,3.65
2019-02-19T21:21:48.453Z,3.52
2019-02-19T21:24:21.292Z,3.50
2019-02-19T21:26:50.790Z,4.45
2019-02-19T21:29:20.248Z,4.28
2019-02-19T21:31:49.846Z,4.97
2019-02-19T21:34:19.309Z,5.28
2019-02-19T21:36:48.831Z,4.37
2019-02-19T21:39:18.323Z,4.92
2019-02-19T21:41:47.796Z,3.50
2019-02-19T21:44:18.081Z,4.22
2019-02-19T21:46:47.570Z,4.80
2019-02-19T21:49:17.094Z,3.95
2019-02-19T21:51:53.947Z,3.98
2019-02-19T21:54:17.937Z,4.28
2019-02-19T21:56:47.474Z,4.85
2019-02-19T21:59:17.013Z,3.92
2019-02-19T22:01:46.876Z,4.28
2019-02-19T22:04:16.478Z,6.00
2019-02-19T22:06:45.963Z,4.40
2019-02-19T22:09:15.468Z,5.00
2019-02-19T22:11:44.969Z,4.70
2019-02-19T22:14:14.499Z,4.58
2019-02-19T22:16:44.010Z,6.20
2019-02-19T22:19:13.493Z,4.80
2019-02-19T22:21:50.473Z,4.40
2019-02-19T22:24:21.619Z,5.40
2019-02-19T22:26:51.113Z,5.12
2019-02-19T22:29:20.738Z,5.30
2019-02-19T22:31:50.235Z,5.62
2019-02-19T22:34:19.860Z,5.50
2019-02-19T22:36:49.378Z,5.45
2019-02-19T22:39:18.862Z,6.15
2019-02-19T22:41:48.447Z,4.42
2019-02-19T22:44:17.965Z,6.25
2019-02-19T22:46:47.497Z,5.15
2019-02-19T22:49:17.048Z,5.15
2019-02-19T22:51:46.548Z,4.58
2019-02-19T22:54:26.793Z,4.83
2019-02-19T22:56:56.315Z,6.08
2019-02-19T22:59:25.783Z,5.53
2019-02-19T23:01:59.918Z,5.22
2019-02-19T23:04:29.464Z,5.30
2019-02-19T23:06:59.081Z,4.55
2019-02-19T23:09:28.606Z,4.40
2019-02-19T23:11:58.087Z,4.45
2019-02-19T23:14:27.641Z,4.33
2019-02-19T23:16:57.115Z,4.78
2019-02-19T23:19:26.622Z,3.90
2019-02-19T23:21:56.104Z,3.40
2019-02-19T23:24:25.617Z,4.45
2019-02-19T23:26:55.201Z,4.80
2019-02-19T23:29:24.634Z,4.20
2019-02-19T23:31:54.109Z,4.75
2019-02-19T23:34:23.594Z,3.90
2019-02-19T23:36:54.740Z,3.92
2019-02-19T23:39:24.274Z,4.28
2019-02-19T23:41:53.763Z,4.28
2019-02-19T23:44:23.259Z,5.10
2019-02-19T23:46:52.758Z,4.55
2019-02-19T23:49:22.275Z,4.58
2019-02-19T23:51:51.777Z,3.40
2019-02-19T23:54:21.285Z,3.72
2019-02-19T23:56:50.759Z,3.45
2019-02-19T23:59:20.285Z,4.20
